createdAt,value
2018-05-15T00:00:45.014Z,10.80
2018-05-15T00:01:44.967Z,10.80
2018-05-15T00:02:44.996Z,8.70
2018-05-15T00:03:45.025Z,10.00
2018-05-15T00:04:45.056Z,10.60
2018-05-15T00:05:45.078Z,13.00
2018-05-15T00:06:45.106Z,10.00
2018-05-15T00:07:45.138Z,12.10
2018-05-15T00:08:45.166Z,9.60
2018-05-15T00:09:45.187Z,8.50
2018-05-15T00:10:45.224Z,10.60
2018-05-15T00:11:45.251Z,10.60
2018-05-15T00:12:45.277Z,11.00
2018-05-15T00:13:45.300Z,11.40
2018-05-15T00:14:45.326Z,8.00
2018-05-15T00:15:45.356Z,9.00
2018-05-15T00:16:45.381Z,16.10
2018-05-15T00:17:45.409Z,11.50
2018-05-15T00:18:45.442Z,18.80
2018-05-15T00:19:45.465Z,17.10
2018-05-15T00:20:45.559Z,30.40
2018-05-15T00:21:45.524Z,29.20
2018-05-15T00:22:45.546Z,16.10
2018-05-15T00:23:45.577Z,19.90
2018-05-15T00:24:45.602Z,16.30
2018-05-15T00:25:45.631Z,24.50
2018-05-15T00:26:45.657Z,21.40
2018-05-15T00:27:45.683Z,24.80
2018-05-15T00:28:45.716Z,13.30
2018-05-15T00:29:45.736Z,12.90
2018-05-15T00:30:45.766Z,9.30
2018-05-15T00:31:45.800Z,9.80
2018-05-15T00:32:45.820Z,11.30
2018-05-15T00:33:45.854Z,14.20
2018-05-15T00:34:45.876Z,13.90
2018-05-15T00:35:45.911Z,13.30
2018-05-15T00:36:45.931Z,12.00
2018-05-15T00:37:45.956Z,12.20
2018-05-15T00:38:45.986Z,12.20
2018-05-15T00:39:46.023Z,13.20
2018-05-15T00:40:46.046Z,10.70
2018-05-15T00:41:46.077Z,10.60
2018-05-15T00:42:46.101Z,9.50
2018-05-15T00:43:46.125Z,14.70
2018-05-15T00:44:46.154Z,9.50
2018-05-15T00:45:46.184Z,13.10
2018-05-15T00:46:46.211Z,12.20
2018-05-15T00:47:46.235Z,11.00
2018-05-15T00:48:46.264Z,11.80
2018-05-15T00:49:46.288Z,13.30
2018-05-15T00:50:46.316Z,14.00
2018-05-15T00:51:46.353Z,9.80
2018-05-15T00:52:46.373Z,13.20
2018-05-15T00:53:46.398Z,18.30
2018-05-15T00:54:46.427Z,10.10
2018-05-15T00:55:46.454Z,13.20
2018-05-15T00:56:46.488Z,11.50
2018-05-15T00:57:46.505Z,11.40
2018-05-15T00:58:46.534Z,11.20
2018-05-15T00:59:46.559Z,17.10
2018-05-15T01:00:46.601Z,13.10
2018-05-15T01:01:46.614Z,11.00
2018-05-15T01:02:46.644Z,12.00
2018-05-15T01:03:46.669Z,12.70
2018-05-15T01:04:46.699Z,13.10
2018-05-15T01:05:46.726Z,12.70
2018-05-15T01:06:46.764Z,14.90
2018-05-15T01:07:46.783Z,16.40
2018-05-15T01:08:46.805Z,13.60
2018-05-15T01:09:46.836Z,19.10
2018-05-15T01:10:46.864Z,15.40
2018-05-15T01:11:46.890Z,16.10
2018-05-15T01:12:46.919Z,15.70
2018-05-15T01:13:46.945Z,13.00
2018-05-15T01:14:46.969Z,17.90
2018-05-15T01:15:46.997Z,12.40
2018-05-15T01:16:47.039Z,9.50
2018-05-15T01:17:47.049Z,10.30
2018-05-15T01:18:47.082Z,11.20
2018-05-15T01:19:47.113Z,13.50
2018-05-15T01:20:47.133Z,17.70
2018-05-15T01:21:47.159Z,15.50
2018-05-15T01:22:47.193Z,14.90
2018-05-15T01:23:47.213Z,16.60
2018-05-15T01:24:47.246Z,16.90
2018-05-15T01:25:47.270Z,12.80
2018-05-15T01:26:47.310Z,17.30
2018-05-15T01:27:47.324Z,12.60
2018-05-15T01:28:47.358Z,12.10
2018-05-15T01:29:47.378Z,12.90
2018-05-15T01:30:47.403Z,14.60
2018-05-15T01:31:47.438Z,12.40
2018-05-15T01:32:47.459Z,14.20
2018-05-15T01:33:47.488Z,18.10
2018-05-15T01:34:47.515Z,24.70
2018-05-15T01:35:47.539Z,25.40
2018-05-15T01:36:47.570Z,19.90
2018-05-15T01:37:47.593Z,15.90
2018-05-15T01:38:47.628Z,18.40
2018-05-15T01:39:47.647Z,16.10
2018-05-15T01:40:47.685Z,15.50
2018-05-15T01:41:47.708Z,13.00
2018-05-15T01:42:47.728Z,10.40
2018-05-15T01:43:47.765Z,12.60
2018-05-15T01:44:47.793Z,14.20
2018-05-15T01:45:47.811Z,12.70
2018-05-15T01:46:47.838Z,12.40
2018-05-15T01:47:47.868Z,12.90
2018-05-15T01:48:47.892Z,10.00
2018-05-15T01:49:47.918Z,13.30
2018-05-15T01:50:47.948Z,12.50
2018-05-15T01:51:47.977Z,13.00
2018-05-15T01:52:48.002Z,16.30
2018-05-15T01:53:48.025Z,14.40
2018-05-15T01:54:48.057Z,12.80
2018-05-15T01:55:48.078Z,14.20
2018-05-15T01:56:48.108Z,11.80
2018-05-15T01:57:48.133Z,11.60
2018-05-15T01:58:48.161Z,12.60
2018-05-15T01:59:48.194Z,13.40
2018-05-15T02:00:48.216Z,12.60
2018-05-15T02:01:48.245Z,13.10
2018-05-15T02:02:48.266Z,12.70
2018-05-15T02:03:48.301Z,10.80
2018-05-15T02:04:48.321Z,10.90
2018-05-15T02:05:48.349Z,12.80
2018-05-15T02:06:48.378Z,12.60
2018-05-15T02:07:48.402Z,11.70
2018-05-15T02:08:48.432Z,14.10
2018-05-15T02:09:48.457Z,12.10
2018-05-15T02:10:48.492Z,12.60
2018-05-15T02:11:48.518Z,12.80
2018-05-15T02:12:48.540Z,10.80
2018-05-15T02:13:48.566Z,12.80
2018-05-15T02:14:48.595Z,15.00
2018-05-15T02:15:48.621Z,13.40
2018-05-15T02:16:48.647Z,14.10
2018-05-15T02:17:48.680Z,11.80
2018-05-15T02:18:48.703Z,13.80
2018-05-15T02:19:48.727Z,13.60
2018-05-15T02:20:48.756Z,11.70
2018-05-15T02:21:48.785Z,11.80
2018-05-15T02:22:48.813Z,14.10
2018-05-15T02:23:48.836Z,14.70
2018-05-15T02:24:48.864Z,12.90
2018-05-15T02:25:48.886Z,13.00
2018-05-15T02:26:48.917Z,14.40
2018-05-15T02:27:48.947Z,13.00
2018-05-15T02:28:48.969Z,10.70
2018-05-15T02:29:48.998Z,11.70
2018-05-15T02:30:49.032Z,11.30
2018-05-15T02:31:49.049Z,11.70
2018-05-15T02:32:49.081Z,11.00
2018-05-15T02:33:49.103Z,13.20
2018-05-15T02:34:49.130Z,13.10
2018-05-15T02:35:49.161Z,14.60
2018-05-15T02:36:49.182Z,11.30
2018-05-15T02:37:49.210Z,12.30
2018-05-15T02:38:49.244Z,14.00
2018-05-15T02:39:49.263Z,11.40
2018-05-15T02:40:49.290Z,12.20
2018-05-15T02:41:49.329Z,14.60
2018-05-15T02:42:49.346Z,14.70
2018-05-15T02:43:49.369Z,15.10
2018-05-15T02:44:49.404Z,14.60
2018-05-15T02:45:49.426Z,15.20
2018-05-15T02:46:49.453Z,14.00
2018-05-15T02:47:49.482Z,13.70
2018-05-15T02:48:49.509Z,17.60
2018-05-15T02:49:49.531Z,14.00
2018-05-15T02:50:49.559Z,12.50
2018-05-15T02:51:49.586Z,14.50
2018-05-15T02:52:49.617Z,13.80
2018-05-15T02:53:49.645Z,15.50
2018-05-15T02:54:49.665Z,12.80
2018-05-15T02:55:49.734Z,21.10
2018-05-15T02:56:49.720Z,19.40
2018-05-15T02:57:49.749Z,14.90
2018-05-15T02:58:49.774Z,13.70
2018-05-15T02:59:49.800Z,12.90
2018-05-15T03:00:49.825Z,14.20
2018-05-15T03:01:49.853Z,13.80
2018-05-15T03:02:49.880Z,13.20
2018-05-15T03:03:49.909Z,15.80
2018-05-15T03:04:49.938Z,12.90
2018-05-15T03:05:49.961Z,14.20
2018-05-15T03:06:49.991Z,16.00
2018-05-15T03:07:50.009Z,14.00
2018-05-15T03:08:50.046Z,11.60
2018-05-15T03:09:50.069Z,15.90
2018-05-15T03:10:50.103Z,16.40
2018-05-15T03:11:50.126Z,15.70
2018-05-15T03:12:50.145Z,12.40
2018-05-15T03:13:50.170Z,14.20
2018-05-15T03:14:50.195Z,14.70
2018-05-15T03:15:50.224Z,15.90
2018-05-15T03:16:50.265Z,15.40
2018-05-15T03:17:50.281Z,13.70
2018-05-15T03:18:50.308Z,16.20
2018-05-15T03:19:50.329Z,13.80
2018-05-15T03:20:50.354Z,16.90
2018-05-15T03:21:50.383Z,15.70
2018-05-15T03:22:50.409Z,15.10
2018-05-15T03:23:50.440Z,16.70
2018-05-15T03:24:50.463Z,15.20
2018-05-15T03:25:50.493Z,17.10
2018-05-15T03:26:50.519Z,17.50
2018-05-15T03:27:50.547Z,14.50
2018-05-15T03:28:50.568Z,15.30
2018-05-15T03:29:50.594Z,17.70
2018-05-15T03:30:50.628Z,17.30
2018-05-15T03:31:50.656Z,18.40
2018-05-15T03:32:50.677Z,12.90
2018-05-15T03:33:50.702Z,16.40
2018-05-15T03:34:50.735Z,18.60
2018-05-15T03:35:50.762Z,20.30
2018-05-15T03:36:50.785Z,13.30
2018-05-15T03:37:50.803Z,15.70
2018-05-15T03:38:50.924Z,15.00
2018-05-15T03:39:50.859Z,17.10
2018-05-15T03:40:50.887Z,15.10
2018-05-15T03:41:50.916Z,15.30
2018-05-15T03:42:50.938Z,18.70
2018-05-15T03:43:50.963Z,17.00
2018-05-15T03:44:50.996Z,14.80
2018-05-15T03:45:51.017Z,18.20
2018-05-15T03:46:51.054Z,19.50
2018-05-15T03:47:51.077Z,18.30
2018-05-15T03:48:51.097Z,19.40
2018-05-15T03:49:51.124Z,15.50
2018-05-15T03:50:51.150Z,15.90
2018-05-15T03:51:51.176Z,16.20
2018-05-15T03:52:51.203Z,14.00
2018-05-15T03:53:51.226Z,14.60
2018-05-15T03:54:51.257Z,19.00
2018-05-15T03:55:51.279Z,14.80
2018-05-15T03:56:51.306Z,18.00
2018-05-15T03:57:51.335Z,12.90
2018-05-15T03:58:51.361Z,16.90
2018-05-15T03:59:51.387Z,15.00
2018-05-15T04:00:51.416Z,18.50
2018-05-15T04:01:51.444Z,16.40
2018-05-15T04:02:51.471Z,14.80
2018-05-15T04:03:51.498Z,15.20
2018-05-15T04:04:51.523Z,17.10
2018-05-15T04:05:51.547Z,16.60
2018-05-15T04:06:51.575Z,18.60
2018-05-15T04:07:51.602Z,16.80
2018-05-15T04:08:51.625Z,14.30
2018-05-15T04:09:51.651Z,16.40
2018-05-15T04:10:51.718Z,15.70
2018-05-15T04:11:51.706Z,16.20
2018-05-15T04:12:51.736Z,15.80
2018-05-15T04:13:51.756Z,17.30
2018-05-15T04:14:51.786Z,15.20
2018-05-15T04:15:51.811Z,14.10
2018-05-15T04:16:51.846Z,13.70
2018-05-15T04:17:51.866Z,17.20
2018-05-15T04:18:51.893Z,18.00
2018-05-15T04:19:51.920Z,16.70
2018-05-15T04:20:51.943Z,23.00
2018-05-15T04:21:51.972Z,20.70
2018-05-15T04:22:51.996Z,19.50
2018-05-15T04:23:52.022Z,19.50
2018-05-15T04:24:52.058Z,17.60
2018-05-15T04:25:52.081Z,16.90
2018-05-15T04:26:52.102Z,20.20
2018-05-15T04:27:52.136Z,25.60
2018-05-15T04:28:52.156Z,21.50
2018-05-15T04:29:52.181Z,22.20
2018-05-15T04:30:52.205Z,17.40
2018-05-15T04:31:52.236Z,21.80
2018-05-15T04:32:52.267Z,20.40
2018-05-15T04:33:52.289Z,21.90
2018-05-15T04:34:52.316Z,17.00
2018-05-15T04:35:52.341Z,16.20
2018-05-15T04:36:52.370Z,18.90
2018-05-15T04:37:52.399Z,24.50
2018-05-15T04:38:52.424Z,17.00
2018-05-15T04:39:52.450Z,18.10
2018-05-15T04:40:52.479Z,16.40
2018-05-15T04:41:52.503Z,18.20
2018-05-15T04:42:52.525Z,19.20
2018-05-15T04:43:52.882Z,19.00
2018-05-15T04:44:52.581Z,23.40
2018-05-15T04:45:52.605Z,16.80
2018-05-15T04:46:52.634Z,21.10
2018-05-15T04:47:52.658Z,19.70
2018-05-15T04:48:52.686Z,18.90
2018-05-15T04:49:52.708Z,19.70
2018-05-15T04:50:52.735Z,20.00
2018-05-15T04:51:52.761Z,19.30
2018-05-15T04:52:52.785Z,19.70
2018-05-15T04:53:52.814Z,19.60
2018-05-15T04:54:52.840Z,18.00
2018-05-15T04:55:52.870Z,15.30
2018-05-15T04:56:52.895Z,17.30
2018-05-15T04:57:52.920Z,20.10
2018-05-15T04:58:52.944Z,19.80
2018-05-15T04:59:52.977Z,19.30
2018-05-15T05:00:53.007Z,18.30
2018-05-15T05:01:53.070Z,15.40
2018-05-15T05:02:53.059Z,18.50
2018-05-15T05:03:53.084Z,18.00
2018-05-15T05:04:53.108Z,18.80
2018-05-15T05:05:53.129Z,23.60
2018-05-15T05:06:53.155Z,24.50
2018-05-15T05:07:53.187Z,26.40
2018-05-15T05:08:53.209Z,23.60
2018-05-15T05:09:53.247Z,27.80
2018-05-15T05:10:53.264Z,28.30
2018-05-15T05:11:53.320Z,23.20
2018-05-15T05:12:53.315Z,25.50
2018-05-15T05:13:53.347Z,22.60
2018-05-15T05:14:53.371Z,19.60
2018-05-15T05:15:53.396Z,17.90
2018-05-15T05:16:53.423Z,18.80
2018-05-15T05:17:53.449Z,19.80
2018-05-15T05:18:53.474Z,18.00
2018-05-15T05:19:53.507Z,17.50
2018-05-15T05:20:53.529Z,18.00
2018-05-15T05:21:53.558Z,17.00
2018-05-15T05:22:53.583Z,19.70
2018-05-15T05:23:53.610Z,19.10
2018-05-15T05:24:53.642Z,18.70
2018-05-15T05:25:53.664Z,17.70
2018-05-15T05:26:53.692Z,18.20
2018-05-15T05:27:53.717Z,21.10
2018-05-15T05:28:53.742Z,17.40
2018-05-15T05:29:53.769Z,20.10
2018-05-15T05:30:53.797Z,18.10
2018-05-15T05:31:53.827Z,19.20
2018-05-15T05:32:53.853Z,20.90
2018-05-15T05:33:53.879Z,21.60
2018-05-15T05:34:53.906Z,21.80
2018-05-15T05:35:53.929Z,18.50
2018-05-15T05:36:53.956Z,20.50
2018-05-15T05:37:53.989Z,25.10
2018-05-15T05:38:54.010Z,22.70
2018-05-15T05:39:54.041Z,20.70
2018-05-15T05:40:54.068Z,19.90
2018-05-15T05:41:54.092Z,21.00
2018-05-15T05:42:54.113Z,19.30
2018-05-15T05:43:54.143Z,16.10
2018-05-15T05:44:54.171Z,18.70
2018-05-15T05:45:54.198Z,19.10
2018-05-15T05:46:54.224Z,19.00
2018-05-15T05:47:54.247Z,17.10
2018-05-15T05:48:54.277Z,18.10
2018-05-15T05:49:54.306Z,20.40
2018-05-15T05:50:54.330Z,20.40
2018-05-15T05:51:54.451Z,19.00
2018-05-15T05:52:54.382Z,17.50
2018-05-15T05:53:54.412Z,17.70
2018-05-15T05:54:54.438Z,18.70
2018-05-15T05:55:54.498Z,18.30
2018-05-15T05:56:54.492Z,15.70
2018-05-15T05:57:54.519Z,18.20
2018-05-15T05:58:54.552Z,16.90
2018-05-15T05:59:54.571Z,17.70
2018-05-15T06:00:54.607Z,17.20
2018-05-15T06:01:54.633Z,14.90
2018-05-15T06:02:54.664Z,16.30
2018-05-15T06:03:54.676Z,18.90
2018-05-15T06:04:54.710Z,18.10
2018-05-15T06:05:54.731Z,18.40
2018-05-15T06:06:54.765Z,17.70
2018-05-15T06:07:54.787Z,17.40
2018-05-15T06:08:54.821Z,14.60
2018-05-15T06:09:54.841Z,19.10
2018-05-15T06:10:54.871Z,18.50
2018-05-15T06:11:54.904Z,17.50
2018-05-15T06:12:54.925Z,14.90
2018-05-15T06:13:54.956Z,16.80
2018-05-15T06:14:54.977Z,17.50
2018-05-15T06:15:55.008Z,17.70
2018-05-15T06:16:55.033Z,19.40
2018-05-15T06:17:55.062Z,20.70
2018-05-15T06:18:55.090Z,20.70
2018-05-15T06:19:55.119Z,20.10
2018-05-15T06:20:55.164Z,18.90
2018-05-15T06:21:55.163Z,20.80
2018-05-15T06:22:55.194Z,16.70
2018-05-15T06:23:55.224Z,16.80
2018-05-15T06:24:55.250Z,15.30
2018-05-15T06:25:55.277Z,17.00
2018-05-15T06:26:55.355Z,19.50
2018-05-15T06:27:55.326Z,22.60
2018-05-15T06:28:55.357Z,21.20
2018-05-15T06:29:55.386Z,18.60
2018-05-15T06:30:55.411Z,15.40
2018-05-15T06:31:55.437Z,14.70
2018-05-15T06:32:55.492Z,17.20
2018-05-15T06:33:55.577Z,14.80
2018-05-15T06:34:55.517Z,16.40
2018-05-15T06:35:55.546Z,18.90
2018-05-15T06:36:55.570Z,15.70
2018-05-15T06:37:55.599Z,18.30
2018-05-15T06:38:55.631Z,15.50
2018-05-15T06:39:55.656Z,13.30
2018-05-15T06:40:55.682Z,20.00
2018-05-15T06:41:55.708Z,21.00
2018-05-15T06:42:55.741Z,19.30
2018-05-15T06:43:55.768Z,17.50
2018-05-15T06:44:55.790Z,16.80
2018-05-15T06:45:55.819Z,14.60
2018-05-15T06:46:55.846Z,16.40
2018-05-15T06:47:55.879Z,14.10
2018-05-15T06:48:55.900Z,16.30
2018-05-15T06:49:55.933Z,17.20
2018-05-15T06:50:55.965Z,15.90
2018-05-15T06:51:55.985Z,18.00
2018-05-15T06:52:56.011Z,14.40
2018-05-15T06:53:56.038Z,19.20
2018-05-15T06:54:56.066Z,14.80
2018-05-15T06:55:56.094Z,13.20
2018-05-15T06:56:56.120Z,11.70
2018-05-15T06:57:56.156Z,17.50
2018-05-15T06:58:56.179Z,13.80
2018-05-15T06:59:56.204Z,18.20
2018-05-15T07:00:56.246Z,14.60
2018-05-15T07:01:56.355Z,12.40
2018-05-15T07:02:56.286Z,13.10
2018-05-15T07:03:56.313Z,13.30
2018-05-15T07:04:56.341Z,16.70
2018-05-15T07:05:56.367Z,15.40
2018-05-15T07:06:56.402Z,12.20
2018-05-15T07:07:56.430Z,14.80
2018-05-15T07:08:56.450Z,13.80
2018-05-15T07:09:56.481Z,14.20
2018-05-15T07:10:56.510Z,14.40
2018-05-15T07:11:56.541Z,12.20
2018-05-15T07:12:56.564Z,13.70
2018-05-15T07:13:56.598Z,11.50
2018-05-15T07:14:56.616Z,14.00
2018-05-15T07:15:56.651Z,12.60
2018-05-15T07:16:56.674Z,11.60
2018-05-15T07:17:56.699Z,10.80
2018-05-15T07:18:56.725Z,13.70
2018-05-15T07:19:56.760Z,11.90
2018-05-15T07:20:56.783Z,14.00
2018-05-15T07:21:56.815Z,12.10
2018-05-15T07:22:56.839Z,14.90
2018-05-15T07:23:56.869Z,13.30
2018-05-15T07:24:56.896Z,16.70
2018-05-15T07:25:56.924Z,14.00
2018-05-15T07:26:56.953Z,18.90
2018-05-15T07:27:56.983Z,16.60
2018-05-15T07:28:57.007Z,13.60
2018-05-15T07:29:57.037Z,22.50
2018-05-15T07:30:57.063Z,16.00
2018-05-15T07:31:57.107Z,15.10
2018-05-15T07:32:57.123Z,12.50
2018-05-15T07:33:57.148Z,15.70
2018-05-15T07:34:57.173Z,15.20
2018-05-15T07:35:57.200Z,15.90
2018-05-15T07:36:57.228Z,19.00
2018-05-15T07:37:57.260Z,12.40
2018-05-15T07:38:57.289Z,15.80
2018-05-15T07:39:57.318Z,12.20
2018-05-15T07:40:57.343Z,14.60
2018-05-15T07:41:57.370Z,17.30
2018-05-15T07:42:57.396Z,15.80
2018-05-15T07:43:57.428Z,20.90
2018-05-15T07:44:57.453Z,15.20
2018-05-15T07:45:57.478Z,13.80
2018-05-15T07:46:57.513Z,16.20
2018-05-15T07:47:57.540Z,17.60
2018-05-15T07:48:57.570Z,16.90
2018-05-15T07:49:57.598Z,19.10
2018-05-15T07:50:57.619Z,18.90
2018-05-15T07:51:57.651Z,18.00
2018-05-15T07:52:57.682Z,37.00
2018-05-15T07:53:57.705Z,18.10
2018-05-15T07:54:57.738Z,11.40
2018-05-15T07:55:57.762Z,14.40
2018-05-15T07:56:57.797Z,12.70
2018-05-15T07:57:57.816Z,11.00
2018-05-15T07:58:57.848Z,19.80
2018-05-15T07:59:57.885Z,17.50
2018-05-15T08:00:57.908Z,18.10
2018-05-15T08:01:57.932Z,18.90
2018-05-15T08:02:57.958Z,14.10
2018-05-15T08:03:57.989Z,11.30
2018-05-15T08:04:58.022Z,9.80
2018-05-15T08:05:58.044Z,12.00
2018-05-15T08:06:58.081Z,10.20
2018-05-15T08:07:58.094Z,11.50
2018-05-15T08:08:58.127Z,10.30
2018-05-15T08:09:58.150Z,8.10
2018-05-15T08:10:58.179Z,9.30
2018-05-15T08:11:58.240Z,12.50
2018-05-15T08:12:58.243Z,9.70
2018-05-15T08:13:58.268Z,13.30
2018-05-15T08:14:58.305Z,9.90
2018-05-15T08:15:58.326Z,13.60
2018-05-15T08:16:58.363Z,8.90
2018-05-15T08:17:58.377Z,8.00
2018-05-15T08:18:58.412Z,8.70
2018-05-15T08:19:58.451Z,10.00
2018-05-15T08:20:58.467Z,7.40
2018-05-15T08:21:58.494Z,15.50
2018-05-15T08:22:58.527Z,13.60
2018-05-15T08:23:58.555Z,11.40
2018-05-15T08:24:58.580Z,9.10
2018-05-15T08:25:58.611Z,10.30
2018-05-15T08:26:58.644Z,8.60
2018-05-15T08:27:58.666Z,10.50
2018-05-15T08:28:58.705Z,5.90
2018-05-15T08:29:58.723Z,7.90
2018-05-15T08:30:58.813Z,6.10
2018-05-15T08:31:58.778Z,7.40
2018-05-15T08:32:58.810Z,10.40
2018-05-15T08:33:58.833Z,7.50
2018-05-15T08:34:58.874Z,9.50
2018-05-15T08:35:58.896Z,7.40
2018-05-15T08:36:58.922Z,7.80
2018-05-15T08:37:58.957Z,9.20
2018-05-15T08:38:58.976Z,8.50
2018-05-15T08:39:59.008Z,7.50
2018-05-15T08:40:59.036Z,9.60
2018-05-15T08:41:59.065Z,7.00
2018-05-15T08:42:59.091Z,8.10
2018-05-15T08:43:59.125Z,6.40
2018-05-15T08:44:59.150Z,6.80
2018-05-15T08:45:59.181Z,8.30
2018-05-15T08:46:59.205Z,7.10
2018-05-15T08:47:59.234Z,8.90
2018-05-15T08:48:59.269Z,5.10
2018-05-15T08:49:59.294Z,7.90
2018-05-15T08:50:59.316Z,7.60
2018-05-15T08:51:59.345Z,9.20
2018-05-15T08:52:59.375Z,8.10
2018-05-15T08:53:59.407Z,7.30
2018-05-15T08:54:59.436Z,7.60
2018-05-15T08:55:59.538Z,11.00
2018-05-15T08:56:59.491Z,6.90
2018-05-15T08:57:59.520Z,8.70
2018-05-15T08:58:59.552Z,18.80
2018-05-15T08:59:59.574Z,10.00
2018-05-15T09:00:59.621Z,9.70
2018-05-15T09:01:59.646Z,5.80
2018-05-15T09:02:59.664Z,8.50
2018-05-15T09:03:59.700Z,6.30
2018-05-15T09:04:59.721Z,9.80
2018-05-15T09:05:59.759Z,11.90
2018-05-15T09:06:59.869Z,9.00
2018-05-15T09:07:59.808Z,6.30
2018-05-15T09:08:59.843Z,8.00
2018-05-15T09:09:59.860Z,4.70
2018-05-15T09:10:59.891Z,10.10
2018-05-15T09:11:59.918Z,9.00
2018-05-15T09:12:59.952Z,14.50
2018-05-15T09:13:59.977Z,7.50
2018-05-15T09:15:00.012Z,11.40
2018-05-15T09:16:00.043Z,9.70
2018-05-15T09:17:00.069Z,17.20
2018-05-15T09:18:00.097Z,18.80
2018-05-15T09:19:00.124Z,9.10
2018-05-15T09:20:00.152Z,5.50
2018-05-15T09:21:00.179Z,6.70
2018-05-15T09:22:00.214Z,6.00
2018-05-15T09:23:00.341Z,6.70
2018-05-15T09:24:00.274Z,5.90
2018-05-15T09:25:00.303Z,8.90
2018-05-15T09:26:00.327Z,5.70
2018-05-15T09:27:00.369Z,4.10
2018-05-15T09:28:00.384Z,6.50
2018-05-15T09:29:00.416Z,6.90
2018-05-15T09:30:00.445Z,15.40
2018-05-15T09:31:00.471Z,7.70
2018-05-15T09:32:00.502Z,6.20
2018-05-15T09:33:00.529Z,6.90
2018-05-15T09:34:00.563Z,4.90
2018-05-15T09:35:00.588Z,6.30
2018-05-15T09:36:00.619Z,5.80
2018-05-15T09:37:00.649Z,7.90
2018-05-15T09:38:00.676Z,7.30
2018-05-15T09:39:00.705Z,6.60
2018-05-15T09:40:00.733Z,6.70
2018-05-15T09:41:00.759Z,5.90
2018-05-15T09:42:00.792Z,6.20
2018-05-15T09:43:00.826Z,6.40
2018-05-15T09:44:00.851Z,5.30
2018-05-15T09:45:00.878Z,6.20
2018-05-15T09:46:00.910Z,6.30
2018-05-15T09:47:00.988Z,5.60
2018-05-15T09:48:00.966Z,8.00
2018-05-15T09:49:00.993Z,8.30
2018-05-15T09:50:01.022Z,6.90
2018-05-15T09:51:01.059Z,16.50
2018-05-15T09:52:01.083Z,6.90
2018-05-15T09:53:01.113Z,4.80
2018-05-15T09:54:01.144Z,5.90
2018-05-15T09:55:01.175Z,5.60
2018-05-15T09:56:01.202Z,5.30
2018-05-15T09:57:01.235Z,4.90
2018-05-15T09:58:01.258Z,5.30
2018-05-15T09:59:01.291Z,6.60
2018-05-15T10:00:01.319Z,7.00
2018-05-15T10:01:01.347Z,5.60
2018-05-15T10:02:01.372Z,6.90
2018-05-15T10:03:01.403Z,6.20
2018-05-15T10:04:01.439Z,9.40
2018-05-15T10:05:01.464Z,6.40
2018-05-15T10:06:01.502Z,7.40
2018-05-15T10:07:01.530Z,5.10
2018-05-15T10:08:01.611Z,5.80
2018-05-15T10:09:01.582Z,12.70
2018-05-15T10:10:01.617Z,7.30
2018-05-15T10:11:01.642Z,5.50
2018-05-15T10:12:01.683Z,8.40
2018-05-15T10:13:01.715Z,5.60
2018-05-15T10:14:01.730Z,8.90
2018-05-15T10:15:01.760Z,13.60
2018-05-15T10:16:01.788Z,6.90
2018-05-15T10:17:01.814Z,8.60
2018-05-15T10:18:01.849Z,6.60
2018-05-15T10:19:01.882Z,7.60
2018-05-15T10:20:01.936Z,6.00
2018-05-15T10:21:01.936Z,9.00
2018-05-15T10:22:01.967Z,5.40
2018-05-15T10:23:01.995Z,6.20
2018-05-15T10:24:02.029Z,7.50
2018-05-15T10:25:02.055Z,7.60
2018-05-15T10:26:02.081Z,7.20
2018-05-15T10:27:02.112Z,7.30
2018-05-15T10:28:02.142Z,5.90
2018-05-15T10:29:02.171Z,8.70
2018-05-15T10:30:02.280Z,6.80
2018-05-15T10:31:02.231Z,5.50
2018-05-15T10:32:02.267Z,8.50
2018-05-15T10:33:02.290Z,6.80
2018-05-15T10:34:02.318Z,9.30
2018-05-15T10:35:02.355Z,14.80
2018-05-15T10:36:02.381Z,6.50
2018-05-15T10:37:02.413Z,9.20
2018-05-15T10:38:02.441Z,6.80
2018-05-15T10:39:02.471Z,16.10
2018-05-15T10:40:02.498Z,7.20
2018-05-15T10:41:02.531Z,6.20
2018-05-15T10:42:02.556Z,8.00
2018-05-15T10:43:02.586Z,8.30
2018-05-15T10:44:02.743Z,37.50
2018-05-15T10:45:02.655Z,9.90
2018-05-15T10:46:02.673Z,9.70
2018-05-15T10:47:02.706Z,7.30
2018-05-15T10:48:02.736Z,7.10
2018-05-15T10:49:02.769Z,6.20
2018-05-15T10:50:02.800Z,8.50
2018-05-15T10:51:02.826Z,6.50
2018-05-15T10:52:02.860Z,12.00
2018-05-15T10:53:02.890Z,13.90
2018-05-15T10:54:02.929Z,6.60
2018-05-15T10:55:02.951Z,8.40
2018-05-15T10:56:02.982Z,5.40
2018-05-15T10:57:03.011Z,63.00
2018-05-15T10:58:03.043Z,26.10
2018-05-15T10:59:03.070Z,7.80
2018-05-15T11:00:03.104Z,7.40
2018-05-15T11:01:03.136Z,14.70
2018-05-15T11:02:03.167Z,9.10
2018-05-15T11:03:03.194Z,6.50
2018-05-15T11:04:03.235Z,6.40
2018-05-15T11:05:03.263Z,6.80
2018-05-15T11:06:03.296Z,4.50
2018-05-15T11:07:03.319Z,6.20
2018-05-15T11:08:03.357Z,6.80
2018-05-15T11:09:03.386Z,6.70
2018-05-15T11:10:03.421Z,5.30
2018-05-15T11:11:03.450Z,5.20
2018-05-15T11:12:03.494Z,7.10
2018-05-15T11:13:03.520Z,5.80
2018-05-15T11:14:03.549Z,12.00
2018-05-15T11:15:03.588Z,3.70
2018-05-15T11:16:03.620Z,5.70
2018-05-15T11:17:03.654Z,6.10
2018-05-15T11:18:03.687Z,18.80
2018-05-15T11:19:03.720Z,6.00
2018-05-15T11:20:03.759Z,4.10
2018-05-15T11:21:03.788Z,4.60
2018-05-15T11:22:03.825Z,8.20
2018-05-15T11:23:03.867Z,10.30
2018-05-15T11:24:03.898Z,8.70
2018-05-15T11:25:03.931Z,9.80
2018-05-15T11:26:03.960Z,5.90
2018-05-15T11:27:03.993Z,5.70
2018-05-15T11:28:04.033Z,10.50
2018-05-15T11:29:04.069Z,15.60
2018-05-15T11:30:04.105Z,9.70
2018-05-15T11:31:04.140Z,5.50
2018-05-15T11:32:04.174Z,5.40
2018-05-15T11:33:04.209Z,7.40
2018-05-15T11:34:04.247Z,5.80
2018-05-15T11:35:04.284Z,9.00
2018-05-15T11:36:04.387Z,4.60
2018-05-15T11:37:04.357Z,7.20
2018-05-15T11:38:04.386Z,4.50
2018-05-15T11:39:04.421Z,5.20
2018-05-15T11:40:04.459Z,6.70
2018-05-15T11:41:04.498Z,9.30
2018-05-15T11:42:04.530Z,8.90
2018-05-15T11:43:04.565Z,4.50
2018-05-15T11:44:04.605Z,7.70
2018-05-15T11:45:04.640Z,16.40
2018-05-15T11:46:04.668Z,7.30
2018-05-15T11:47:04.712Z,10.20
2018-05-15T11:48:05.158Z,5.90
2018-05-15T11:49:05.713Z,10.00
2018-05-15T11:50:05.802Z,8.90
2018-05-15T11:51:06.116Z,8.80
2018-05-15T11:52:05.730Z,5.30
2018-05-15T11:53:05.954Z,10.90
2018-05-15T11:54:04.964Z,5.00
2018-05-15T11:55:05.006Z,6.80
2018-05-15T11:56:05.043Z,5.50
2018-05-15T11:57:05.078Z,4.00
2018-05-15T11:58:05.215Z,6.90
2018-05-15T11:59:05.162Z,5.70
2018-05-15T12:00:05.293Z,4.10
2018-05-15T12:01:05.227Z,8.20
2018-05-15T12:02:05.263Z,8.70
2018-05-15T12:03:05.384Z,4.80
2018-05-15T12:04:05.399Z,5.60
2018-05-15T12:05:05.381Z,5.90
2018-05-15T12:06:05.450Z,6.90
2018-05-15T12:07:05.457Z,5.10
2018-05-15T12:08:05.614Z,6.50
2018-05-15T12:09:05.541Z,8.60
2018-05-15T12:10:05.563Z,7.50
2018-05-15T12:11:05.607Z,3.60
2018-05-15T12:12:05.637Z,5.90
2018-05-15T12:13:05.676Z,7.40
2018-05-15T12:14:05.723Z,6.50
2018-05-15T12:15:05.765Z,10.20
2018-05-15T12:16:05.817Z,6.30
2018-05-15T12:17:05.825Z,7.60
2018-05-15T12:18:05.864Z,9.70
2018-05-15T12:19:05.900Z,8.80
2018-05-15T12:20:05.939Z,6.50
2018-05-15T12:21:06.028Z,6.80
2018-05-15T12:22:06.004Z,5.70
2018-05-15T12:23:06.044Z,5.50
2018-05-15T12:24:06.087Z,10.20
2018-05-15T12:25:06.111Z,4.80
2018-05-15T12:26:06.146Z,4.90
2018-05-15T12:27:06.191Z,5.10
2018-05-15T12:28:06.397Z,2.70
2018-05-15T12:29:06.252Z,16.40
2018-05-15T12:30:06.297Z,7.50
2018-05-15T12:31:06.328Z,6.00
2018-05-15T12:32:06.365Z,13.10
2018-05-15T12:33:06.399Z,5.70
2018-05-15T12:34:06.436Z,9.70
2018-05-15T12:35:06.479Z,5.60
2018-05-15T12:36:06.512Z,4.10
2018-05-15T12:37:06.558Z,4.90
2018-05-15T12:38:06.586Z,5.10
2018-05-15T12:39:06.630Z,3.80
2018-05-15T12:40:06.663Z,5.80
2018-05-15T12:41:06.701Z,9.00
2018-05-15T12:42:06.972Z,6.50
2018-05-15T12:43:06.778Z,4.00
2018-05-15T12:44:06.822Z,6.20
2018-05-15T12:45:06.852Z,7.70
2018-05-15T12:46:06.899Z,6.30
2018-05-15T12:47:06.932Z,4.90
2018-05-15T12:48:07.020Z,6.70
2018-05-15T12:49:07.012Z,5.00
2018-05-15T12:50:07.045Z,6.30
2018-05-15T12:51:07.094Z,5.60
2018-05-15T12:52:07.128Z,11.50
2018-05-15T12:53:07.169Z,4.50
2018-05-15T12:54:07.281Z,3.80
2018-05-15T12:55:07.245Z,5.50
2018-05-15T12:56:07.284Z,4.00
2018-05-15T12:57:07.320Z,5.40
2018-05-15T12:58:07.369Z,4.90
2018-05-15T12:59:07.406Z,5.30
2018-05-15T13:00:07.445Z,5.60
2018-05-15T13:01:07.484Z,5.30
2018-05-15T13:02:07.521Z,5.00